Time;durP1;ratioP1;P1;durP2;ratioP2;P2;SDS_P1;SDS_P2;PMS_P1;PMS_P2;Temp;Humidity;BMP_temperature;BMP_pressure;BME280_temperature;BME280_humidity;BME280_pressure;Samples;Min_cycle;Max_cycle;Signal;HPM_P1;HPM_P2
2022/06/02 00:01:35;;;;;;;2.03;1.05;;;;;;;-148.56;100.00;61375.16;5070570;28;20035;-27
2022/06/02 00:04:32;;;;;;;2.08;1.20;;;;;;;-148.56;100.00;61375.16;5048903;28;20019;-29
2022/06/02 00:07:20;;;;;;;3.10;1.10;;;;;;;-148.56;100.00;61375.16;5088588;28;20097;-31
2022/06/02 00:09:57;;;;;;;2.33;1.20;;;;;;;-148.56;100.00;61375.16;5082554;28;20146;-30
2022/06/02 00:12:24;;;;;;;1.55;0.90;;;;;;;-148.56;100.00;61375.16;5085902;28;20028;-29
2022/06/02 00:14:55;;;;;;;2.60;1.08;;;;;;;-148.56;100.00;61375.16;5083999;28;20472;-30
2022/06/02 00:17:32;;;;;;;1.98;1.17;;;;;;;-148.56;100.00;61375.16;5086427;28;20032;-29
2022/06/02 00:19:59;;;;;;;1.42;0.98;;;;;;;-148.56;100.00;61375.16;5085069;28;20080;-28
2022/06/02 00:22:38;;;;;;;1.10;0.93;;;;;;;-148.56;100.00;61375.16;5071429;28;20031;-28
2022/06/02 00:25:32;;;;;;;4.80;1.17;;;;;;;-148.56;100.00;61375.16;5082560;28;20044;-30
2022/06/02 00:28:19;;;;;;;1.25;0.90;;;;;;;-148.56;100.00;61375.16;5054715;28;20108;-30
2022/06/02 00:30:50;;;;;;;2.70;0.90;;;;;;;-148.56;100.00;61375.16;5082154;28;20031;-31
2022/06/02 00:33:46;;;;;;;1.63;0.90;;;;;;;-148.56;100.00;61375.16;5090703;28;20035;-30
2022/06/02 00:36:25;;;;;;;1.55;0.95;;;;;;;-148.56;100.00;61375.16;5095377;28;20066;-30
2022/06/02 00:38:51;;;;;;;1.15;1.02;;;;;;;-148.56;100.00;61375.16;5075173;28;20062;-30
2022/06/02 00:41:24;;;;;;;3.42;1.30;;;;;;;-148.56;100.00;61375.16;5087537;28;20965;-30
2022/06/02 00:44:14;;;;;;;2.35;1.08;;;;;;;-148.56;100.00;61375.16;5084639;28;20039;-30
2022/06/02 00:47:26;;;;;;;1.27;0.90;;;;;;;-148.56;100.00;61375.16;5064274;28;20667;-31
2022/06/02 00:49:54;;;;;;;1.77;0.93;;;;;;;-148.56;100.00;61375.16;5062098;28;20599;-32
2022/06/02 00:52:31;;;;;;;1.33;0.80;;;;;;;-148.56;100.00;61375.16;5083663;28;21158;-29
2022/06/02 00:58:09;;;;;;;3.88;1.08;;;;;;;-148.56;100.00;61375.16;5070647;28;20524;-28
2022/06/02 01:00:39;;;;;;;1.80;0.95;;;;;;;-148.56;100.00;61375.16;5071617;28;20063;-29
2022/06/02 01:03:13;;;;;;;1.67;0.90;;;;;;;-148.56;100.00;61375.16;5070066;28;20390;-28
2022/06/02 01:05:57;;;;;;;1.35;0.90;;;;;;;-148.56;100.00;61375.16;5059057;28;20078;-27
2022/06/02 01:08:47;;;;;;;1.23;0.80;;;;;;;-148.56;100.00;61375.16;5078151;28;20057;-29
2022/06/02 01:11:31;;;;;;;1.65;0.90;;;;;;;-148.56;100.00;61375.16;5074147;28;20493;-28
2022/06/02 01:13:56;;;;;;;1.63;0.90;;;;;;;-148.56;100.00;61375.16;5075092;28;20040;-33
2022/06/02 01:16:26;;;;;;;2.42;0.88;;;;;;;-148.56;100.00;61375.16;5075750;28;20039;-33
2022/06/02 01:19:49;;;;;;;3.70;0.77;;;;;;;-148.56;100.00;61375.16;5078414;28;20035;-28
2022/06/02 01:22:48;;;;;;;1.02;0.80;;;;;;;-148.56;100.00;61375.16;4988022;28;20539;-29
2022/06/02 01:25:32;;;;;;;0.88;0.80;;;;;;;-148.56;100.00;61375.16;5084718;28;20036;-30
2022/06/02 01:28:03;;;;;;;2.92;0.80;;;;;;;-148.56;100.00;61375.16;5086895;28;20074;-34
2022/06/02 01:30:59;;;;;;;1.17;0.80;;;;;;;-148.56;100.00;61375.16;5086786;28;20027;-29
2022/06/02 01:33:28;;;;;;;0.90;0.73;;;;;;;-148.56;100.00;61375.16;5084449;28;20149;-29
2022/06/02 01:36:09;;;;;;;1.15;0.80;;;;;;;-148.56;100.00;61375.16;5087163;28;20015;-30
2022/06/02 01:38:45;;;;;;;2.58;0.95;;;;;;;-148.56;100.00;61375.16;5084219;28;20039;-30
2022/06/02 01:41:20;;;;;;;2.08;0.90;;;;;;;-148.56;100.00;61375.16;5065014;28;20059;-29
2022/06/02 01:43:56;;;;;;;1.85;0.80;;;;;;;-148.56;100.00;61375.16;5082320;28;20040;-31
2022/06/02 01:46:23;;;;;;;1.05;0.80;;;;;;;-148.56;100.00;61375.16;5060690;28;20046;-30
2022/06/02 01:49:07;;;;;;;2.17;0.70;;;;;;;-148.56;100.00;61375.16;5070059;28;20019;-29
2022/06/02 01:52:13;;;;;;;1.65;0.82;;;;;;;-148.56;100.00;61375.16;5080720;28;20031;-32
2022/06/02 01:54:42;;;;;;;1.08;0.70;;;;;;;-148.56;100.00;61375.16;5045268;28;20044;-29
2022/06/02 01:57:29;;;;;;;0.93;0.82;;;;;;;-148.56;100.00;61375.16;5077382;28;20042;-30
2022/06/02 02:00:00;;;;;;;1.17;0.80;;;;;;;-148.56;100.00;61375.16;5078169;28;20457;-31
2022/06/02 02:02:35;;;;;;;0.82;0.57;;;;;;;-148.56;100.00;61375.16;5064669;28;20040;-29
2022/06/02 02:05:32;;;;;;;0.85;0.60;;;;;;;-148.56;100.00;61375.16;5083910;28;20039;-33
2022/06/02 02:08:19;;;;;;;0.77;0.70;;;;;;;-148.56;100.00;61375.16;5065264;28;20071;-31
2022/06/02 02:10:47;;;;;;;1.05;0.52;;;;;;;-148.56;100.00;61375.16;5084771;28;20036;-31
2022/06/02 02:13:31;;;;;;;1.42;0.90;;;;;;;-148.56;100.00;61375.16;5081759;28;20057;-30
2022/06/02 02:16:18;;;;;;;0.80;0.70;;;;;;;-148.56;100.00;61375.16;5085099;28;20093;-30
2022/06/02 02:18:53;;;;;;;1.33;0.80;;;;;;;-148.56;100.00;61375.16;5086571;28;20024;-29
2022/06/02 02:21:40;;;;;;;0.82;0.70;;;;;;;-148.56;100.00;61375.16;5083827;28;20034;-30
2022/06/02 02:24:24;;;;;;;1.23;0.80;;;;;;;-148.56;100.00;61375.16;5063330;28;20493;-30
2022/06/02 02:27:22;;;;;;;1.02;0.70;;;;;;;-148.56;100.00;61375.16;5091210;28;20506;-31
2022/06/02 02:30:00;;;;;;;0.90;0.60;;;;;;;-148.56;100.00;61375.16;5058388;28;20028;-32
2022/06/02 02:32:46;;;;;;;1.27;0.75;;;;;;;-148.56;100.00;61375.16;5074074;28;20039;-29
2022/06/02 02:35:32;;;;;;;2.17;0.80;;;;;;;-148.56;100.00;61375.16;5048128;28;20039;-31
2022/06/02 02:38:05;;;;;;;0.70;0.68;;;;;;;-148.56;100.00;61375.16;5054407;28;20116;-30
2022/06/02 02:40:36;;;;;;;1.15;0.75;;;;;;;-148.56;100.00;61375.16;5050087;28;20027;-30
2022/06/02 02:43:06;;;;;;;0.82;0.60;;;;;;;-148.56;100.00;61375.16;5051959;28;20036;-30
2022/06/02 02:45:46;;;;;;;1.75;0.82;;;;;;;-148.56;100.00;61375.16;5053947;28;20034;-32
2022/06/02 02:48:15;;;;;;;1.55;0.70;;;;;;;-148.56;100.00;61375.16;5069602;28;20032;-31
2022/06/02 02:51:12;;;;;;;0.90;0.60;;;;;;;-148.56;100.00;61375.16;5085977;28;20032;-29
2022/06/02 02:53:42;;;;;;;2.25;0.80;;;;;;;-148.56;100.00;61375.16;5074092;28;20116;-30
2022/06/02 02:56:29;;;;;;;0.65;0.52;;;;;;;-148.56;100.00;61375.16;5068986;28;20073;-32
2022/06/02 02:59:15;;;;;;;1.30;0.80;;;;;;;-148.56;100.00;61375.16;5084231;28;20068;-31
2022/06/02 03:02:11;;;;;;;1.52;0.73;;;;;;;-148.56;100.00;61375.16;5074491;28;20048;-29
2022/06/02 03:04:39;;;;;;;0.90;0.70;;;;;;;-148.56;100.00;61375.16;5087824;28;20027;-31
2022/06/02 03:07:05;;;;;;;0.73;0.50;;;;;;;-148.56;100.00;61375.16;5090018;28;20688;-31
2022/06/02 03:09:52;;;;;;;1.10;0.50;;;;;;;-148.56;100.00;61375.16;5084511;28;20026;-31
2022/06/02 03:12:46;;;;;;;1.92;0.80;;;;;;;-148.56;100.00;61375.16;5076724;28;20032;-31
2022/06/02 03:15:20;;;;;;;0.73;0.57;;;;;;;-148.56;100.00;61375.16;5062580;28;20046;-30
2022/06/02 03:18:08;;;;;;;0.80;0.63;;;;;;;-148.56;100.00;61375.16;5062329;28;20764;-29
2022/06/02 03:20:55;;;;;;;1.27;0.60;;;;;;;-148.56;100.00;61375.16;5079688;28;20038;-29
2022/06/02 03:23:51;;;;;;;1.13;0.68;;;;;;;-148.56;100.00;61375.16;5056851;28;20142;-32
2022/06/02 03:26:46;;;;;;;2.33;0.50;;;;;;;-148.56;100.00;61375.16;5076747;28;20027;-30
2022/06/02 03:29:32;;;;;;;0.50;0.50;;;;;;;-148.56;100.00;61375.16;5034260;28;20044;-35
2022/06/02 03:32:10;;;;;;;1.60;0.50;;;;;;;-148.56;100.00;61375.16;5043710;28;20620;-31
2022/06/02 03:35:10;;;;;;;0.80;0.50;;;;;;;-148.56;100.00;61375.16;5045508;28;20080;-31
2022/06/02 03:37:56;;;;;;;1.15;0.60;;;;;;;-148.56;100.00;61375.16;5078679;28;20031;-31
2022/06/02 03:40:24;;;;;;;0.50;0.50;;;;;;;-148.56;100.00;61375.16;5075021;28;20112;-35
2022/06/02 03:43:08;;;;;;;1.23;0.57;;;;;;;-148.56;100.00;61375.16;5088538;28;20083;-29
2022/06/02 03:45:48;;;;;;;0.98;0.60;;;;;;;-148.56;100.00;61375.16;5092317;28;20146;-32
2022/06/02 03:48:19;;;;;;;0.70;0.40;;;;;;;-148.56;100.00;61375.16;5087390;28;20108;-30
2022/06/02 03:51:20;;;;;;;2.03;0.52;;;;;;;-148.56;100.00;61375.16;5087016;28;20092;-33
2022/06/02 03:54:13;;;;;;;1.52;0.50;;;;;;;-148.56;100.00;61375.16;5084521;28;20349;-32
2022/06/02 03:57:16;;;;;;;0.52;0.50;;;;;;;-148.56;100.00;61375.16;5088915;28;20989;-29
2022/06/02 04:00:18;;;;;;;0.68;0.57;;;;;;;-148.56;100.00;61375.16;5087163;28;20117;-29
2022/06/02 04:03:01;;;;;;;0.82;0.55;;;;;;;-148.56;100.00;61375.16;4989935;28;20092;-28
2022/06/02 04:05:32;;;;;;;0.40;0.40;;;;;;;-148.56;100.00;61375.16;5071058;28;20040;-31
2022/06/02 04:08:07;;;;;;;0.77;0.60;;;;;;;-148.56;100.00;61375.16;5097614;28;20054;-30
2022/06/02 04:10:39;;;;;;;1.40;0.60;;;;;;;-148.56;100.00;61375.16;5097732;28;20036;-29
2022/06/02 04:13:39;;;;;;;0.50;0.50;;;;;;;-148.56;100.00;61375.16;5080404;28;20027;-33
2022/06/02 04:16:46;;;;;;;1.20;0.70;;;;;;;-148.56;100.00;61375.16;5082992;28;20044;-30
2022/06/02 04:22:36;;;;;;;1.55;0.52;;;;;;;-148.56;100.00;61375.16;5083928;28;20705;-30
2022/06/02 04:25:27;;;;;;;1.38;0.50;;;;;;;-148.56;100.00;61375.16;5080799;28;20089;-30
2022/06/02 04:27:55;;;;;;;0.82;0.60;;;;;;;-148.56;100.00;61375.16;5096082;28;20728;-29
2022/06/02 04:30:53;;;;;;;0.68;0.55;;;;;;;-148.56;100.00;61375.16;5085056;28;20031;-32
2022/06/02 04:33:25;;;;;;;0.52;0.40;;;;;;;-148.56;100.00;61375.16;5090977;28;20113;-32
2022/06/02 04:36:16;;;;;;;0.63;0.55;;;;;;;-148.56;100.00;61375.16;5060026;28;20807;-30
2022/06/02 04:39:12;;;;;;;0.50;0.40;;;;;;;-148.56;100.00;61375.16;5065991;28;20035;-30
2022/06/02 04:42:03;;;;;;;1.33;0.60;;;;;;;-148.56;100.00;61375.16;5083476;28;20035;-31
2022/06/02 04:44:36;;;;;;;0.47;0.47;;;;;;;-148.56;100.00;61375.16;5062090;28;20108;-29
2022/06/02 04:47:07;;;;;;;1.00;0.50;;;;;;;-148.56;100.00;61375.16;5083519;28;20055;-30
2022/06/02 04:49:54;;;;;;;2.00;0.70;;;;;;;-148.56;100.00;61375.16;5066538;28;20034;-31
2022/06/02 04:52:32;;;;;;;1.17;0.50;;;;;;;-148.56;100.00;61375.16;5083084;28;20619;-32
2022/06/02 04:55:00;;;;;;;0.40;0.40;;;;;;;-148.56;100.00;61375.16;5069898;28;20035;-31
2022/06/02 04:57:46;;;;;;;0.98;0.63;;;;;;;-148.56;100.00;61375.16;5092515;28;20035;-29
2022/06/02 05:00:17;;;;;;;0.55;0.50;;;;;;;-148.56;100.00;61375.16;5083687;28;20643;-29
2022/06/02 05:03:15;;;;;;;5.55;0.93;;;;;;;-148.56;100.00;61375.16;5065548;28;20036;-33
2022/06/02 05:05:59;;;;;;;1.95;0.75;;;;;;;-148.56;100.00;61375.16;5084316;28;20072;-30
2022/06/02 05:08:43;;;;;;;1.75;0.60;;;;;;;-148.56;100.00;61375.16;5085587;28;20032;-30
2022/06/02 05:11:22;;;;;;;2.75;0.60;;;;;;;-148.56;100.00;61375.16;5079812;28;20024;-30
2022/06/02 05:14:01;;;;;;;2.05;0.70;;;;;;;-148.56;100.00;61375.16;5057697;28;20152;-30
2022/06/02 05:17:00;;;;;;;1.38;0.50;;;;;;;-148.56;100.00;61375.16;5052247;28;20143;-31
2022/06/02 05:19:56;;;;;;;1.05;0.70;;;;;;;-148.56;100.00;61375.16;5075288;28;20039;-29
2022/06/02 05:22:33;;;;;;;1.00;0.50;;;;;;;-148.56;100.00;61375.16;5048746;28;20031;-31
2022/06/02 05:25:24;;;;;;;1.75;0.60;;;;;;;-148.56;100.00;61375.16;5080000;28;21329;-31
2022/06/02 05:28:19;;;;;;;1.17;0.50;;;;;;;-148.56;100.00;61375.16;5073865;28;20035;-28
2022/06/02 05:30:50;;;;;;;1.27;0.50;;;;;;;-148.56;100.00;61375.16;5041086;28;20054;-35
2022/06/02 05:33:37;;;;;;;2.15;0.50;;;;;;;-148.56;100.00;61375.16;5083922;28;20063;-28
2022/06/02 05:36:17;;;;;;;2.75;0.63;;;;;;;-148.56;100.00;61375.16;5079620;28;20039;-30
2022/06/02 05:39:01;;;;;;;0.75;0.60;;;;;;;-148.56;100.00;61375.16;5082973;28;20038;-30
2022/06/02 05:41:30;;;;;;;0.60;0.30;;;;;;;-148.56;100.00;61375.16;5084082;28;20175;-29
2022/06/02 05:44:31;;;;;;;1.13;0.50;;;;;;;-148.56;100.00;61375.16;5066207;28;20027;-29
2022/06/02 05:47:02;;;;;;;0.50;0.40;;;;;;;-148.56;100.00;61375.16;5052264;28;20036;-32
2022/06/02 05:49:28;;;;;;;0.82;0.40;;;;;;;-148.56;100.00;61375.16;5084555;28;20031;-29
2022/06/02 05:52:05;;;;;;;1.55;0.70;;;;;;;-148.56;100.00;61375.16;5084036;28;20084;-30
2022/06/02 05:54:31;;;;;;;1.75;0.60;;;;;;;-148.56;100.00;61375.16;5063925;28;20122;-29
2022/06/02 05:57:21;;;;;;;1.65;0.55;;;;;;;-148.56;100.00;61375.16;5077977;28;20680;-29
2022/06/02 05:59:51;;;;;;;0.50;0.50;;;;;;;-148.56;100.00;61375.16;5062876;28;20084;-30
2022/06/02 06:02:41;;;;;;;0.52;0.50;;;;;;;-148.56;100.00;61375.16;5063339;28;20091;-29
2022/06/02 06:05:13;;;;;;;1.08;0.50;;;;;;;-148.56;100.00;61375.16;5076893;28;20036;-28
2022/06/02 06:08:01;;;;;;;1.60;0.50;;;;;;;-148.56;100.00;61375.16;5077987;28;20038;-32
2022/06/02 06:11:16;;;;;;;0.55;0.40;;;;;;;-148.56;100.00;61375.16;5060292;28;20088;-29
2022/06/02 06:14:06;;;;;;;1.42;0.47;;;;;;;-148.56;100.00;61375.16;5066433;28;20048;-29
2022/06/02 06:16:56;;;;;;;0.60;0.50;;;;;;;-148.56;100.00;61375.16;5078771;28;20057;-33
2022/06/02 06:19:34;;;;;;;0.43;0.40;;;;;;;-148.56;100.00;61375.16;5054671;28;20546;-31
2022/06/02 06:22:18;;;;;;;2.58;0.68;;;;;;;-148.56;100.00;61375.16;5068649;28;20030;-29
2022/06/02 06:24:43;;;;;;;2.75;0.80;;;;;;;-148.56;100.00;61375.16;5078694;28;20031;-32
2022/06/02 06:27:35;;;;;;;1.42;0.47;;;;;;;-148.56;100.00;61375.16;5085547;28;20032;-32
2022/06/02 06:30:38;;;;;;;3.75;1.25;;;;;;;-148.56;100.00;61375.16;5047832;28;20039;-31
2022/06/02 06:33:24;;;;;;;4.03;0.90;;;;;;;-148.56;100.00;61375.16;5081904;28;20039;-31
2022/06/02 06:36:27;;;;;;;8.43;1.73;;;;;;;-148.56;100.00;61375.16;5080151;28;20043;-32
2022/06/02 06:39:01;;;;;;;6.15;1.60;;;;;;;-148.56;100.00;61375.16;5079215;28;22155;-35
2022/06/02 06:41:42;;;;;;;4.03;1.60;;;;;;;-148.56;100.00;61375.16;5078579;28;20593;-29
2022/06/02 06:44:31;;;;;;;6.13;2.03;;;;;;;-148.56;100.00;61375.16;5085287;28;20071;-28
2022/06/02 06:47:08;;;;;;;8.77;1.98;;;;;;;-148.56;100.00;61375.16;5079892;28;20291;-29
2022/06/02 06:49:50;;;;;;;9.93;2.15;;;;;;;-148.56;100.00;61375.16;5063592;28;20210;-30
2022/06/02 06:52:50;;;;;;;4.72;1.92;;;;;;;-148.56;100.00;61375.16;5083890;28;20061;-28
2022/06/02 06:55:35;;;;;;;5.25;2.35;;;;;;;-148.56;100.00;61375.16;5085742;28;20024;-31
2022/06/02 06:58:10;;;;;;;10.48;2.50;;;;;;;-148.56;100.00;61375.16;5078712;28;20039;-30
2022/06/02 07:00:43;;;;;;;7.30;2.45;;;;;;;-148.56;100.00;61375.16;5059337;28;20031;-31
2022/06/02 07:03:58;;;;;;;10.57;2.47;;;;;;;-148.56;100.00;61375.16;5063631;28;20035;-29
2022/06/02 07:06:48;;;;;;;5.88;2.50;;;;;;;-148.56;100.00;61375.16;5052770;28;20040;-29
2022/06/02 07:09:48;;;;;;;8.43;2.55;;;;;;;-148.56;100.00;61375.16;5076732;28;20084;-28
2022/06/02 07:15:11;;;;;;;8.52;2.28;;;;;;;-148.56;100.00;61375.16;5078423;28;20042;-29
2022/06/02 07:17:46;;;;;;;7.10;2.90;;;;;;;-148.56;100.00;61375.16;5068300;28;20383;-33
2022/06/02 07:20:16;;;;;;;7.15;2.65;;;;;;;-148.56;100.00;61375.16;5066456;28;20368;-28
2022/06/02 07:22:57;;;;;;;6.47;2.40;;;;;;;-148.56;100.00;61375.16;5065263;28;20031;-31
2022/06/02 07:25:32;;;;;;;5.95;2.15;;;;;;;-148.56;100.00;61375.16;5081156;28;20074;-30
2022/06/02 07:28:14;;;;;;;7.88;2.60;;;;;;;-148.56;100.00;61375.16;5069507;28;20035;-35
2022/06/02 07:30:56;;;;;;;7.55;2.80;;;;;;;-148.56;100.00;61375.16;5050736;28;20666;-31
2022/06/02 07:33:31;;;;;;;6.18;2.72;;;;;;;-148.56;100.00;61375.16;5084976;28;20108;-31
2022/06/02 07:36:15;;;;;;;6.00;2.50;;;;;;;-148.56;100.00;61375.16;5089781;28;20294;-31
2022/06/02 07:38:49;;;;;;;6.90;2.30;;;;;;;-148.56;100.00;61375.16;5082425;28;20027;-34
2022/06/02 07:41:25;;;;;;;5.00;2.38;;;;;;;-148.56;100.00;61375.16;5087001;28;20036;-33
2022/06/02 07:44:22;;;;;;;6.68;2.45;;;;;;;-148.56;100.00;61375.16;5088266;28;20150;-33
2022/06/02 07:47:06;;;;;;;5.18;2.10;;;;;;;-148.56;100.00;61375.16;5009670;28;20636;-34
2022/06/02 07:49:57;;;;;;;5.00;2.33;;;;;;;-148.56;100.00;61375.16;5083229;28;20032;-33
2022/06/02 07:52:38;;;;;;;10.52;2.78;;;;;;;-148.56;100.00;61375.16;5076743;28;20262;-32
2022/06/02 07:55:13;;;;;;;9.20;3.08;;;;;;;-148.56;100.00;61375.16;5076114;28;20047;-31
2022/06/02 07:58:06;;;;;;;5.85;2.67;;;;;;;-148.56;100.00;61375.16;5086142;28;20059;-33
2022/06/02 08:00:40;;;;;;;9.02;2.92;;;;;;;-148.56;100.00;61375.16;5089425;28;20509;-30
2022/06/02 08:03:12;;;;;;;12.57;3.83;;;;;;;-148.56;100.00;61375.16;5054158;28;20035;-31
2022/06/02 08:05:51;;;;;;;15.90;4.53;;;;;;;-148.56;100.00;61375.16;5095509;28;20497;-34
2022/06/02 08:08:29;;;;;;;16.30;4.57;;;;;;;-148.56;100.00;61375.16;5093868;28;20114;-30
2022/06/02 08:11:16;;;;;;;17.27;5.38;;;;;;;-148.56;100.00;61375.16;5093862;28;20024;-30
2022/06/02 08:13:54;;;;;;;22.23;6.13;;;;;;;-148.56;100.00;61375.16;5095097;28;20093;-32
2022/06/02 08:16:25;;;;;;;27.63;6.80;;;;;;;-148.56;100.00;61375.16;5091170;28;20106;-36
2022/06/02 08:18:57;;;;;;;19.77;6.25;;;;;;;-148.56;100.00;61375.16;5090931;28;20024;-31
2022/06/02 08:21:34;;;;;;;23.35;6.13;;;;;;;-148.56;100.00;61375.16;5086704;28;20047;-31
2022/06/02 08:24:18;;;;;;;22.17;6.70;;;;;;;-148.56;100.00;61375.16;5090925;28;20307;-28
2022/06/02 08:27:12;;;;;;;19.35;5.80;;;;;;;-148.56;100.00;61375.16;5089258;28;20665;-29
2022/06/02 08:30:06;;;;;;;10.13;2.40;;;;;;;-148.56;100.00;61375.16;5076105;28;20146;-32
2022/06/02 08:32:34;;;;;;;6.38;1.40;;;;;;;-148.56;100.00;61375.16;5080488;28;20042;-30
2022/06/02 08:35:05;;;;;;;6.13;1.45;;;;;;;-148.56;100.00;61375.16;5089560;28;20115;-30
2022/06/02 08:37:44;;;;;;;5.47;1.48;;;;;;;-148.56;100.00;61375.16;5080952;28;20049;-31
2022/06/02 08:40:24;;;;;;;3.70;1.42;;;;;;;-148.56;100.00;61375.16;5053251;28;20556;-31
2022/06/02 08:43:15;;;;;;;6.65;1.65;;;;;;;-148.56;100.00;61375.16;5066717;28;21271;-31
2022/06/02 08:45:58;;;;;;;4.47;1.33;;;;;;;-148.56;100.00;61375.16;5071809;28;20039;-30
2022/06/02 08:48:24;;;;;;;5.18;1.58;;;;;;;-148.56;100.00;61375.16;5079924;28;20032;-31
2022/06/02 08:51:21;;;;;;;4.85;1.63;;;;;;;-148.56;100.00;61375.16;5080631;28;20115;-29
2022/06/02 08:54:05;;;;;;;5.65;1.50;;;;;;;-148.56;100.00;61375.16;5073338;28;20028;-32
2022/06/02 08:56:58;;;;;;;4.57;1.25;;;;;;;-148.56;100.00;61375.16;5071519;28;20100;-28
2022/06/02 08:59:42;;;;;;;3.88;1.60;;;;;;;-148.56;100.00;61375.16;5097392;28;20047;-31
2022/06/02 09:02:22;;;;;;;5.53;1.50;;;;;;;-148.56;100.00;61375.16;5086055;28;21463;-29
2022/06/02 09:04:53;;;;;;;4.18;1.50;;;;;;;-148.56;100.00;61375.16;5074040;28;20110;-29
2022/06/02 09:07:53;;;;;;;3.92;1.25;;;;;;;-148.56;100.00;61375.16;5086737;28;20448;-30
2022/06/02 09:10:44;;;;;;;6.72;1.55;;;;;;;-148.56;100.00;61375.16;5091607;28;20092;-31
2022/06/02 09:13:47;;;;;;;7.22;1.27;;;;;;;-148.56;100.00;61375.16;5047055;28;20134;-28
2022/06/02 09:16:46;;;;;;;5.22;1.52;;;;;;;-148.56;100.00;61375.16;5084902;28;20052;-30
2022/06/02 09:19:14;;;;;;;2.88;1.10;;;;;;;-148.56;100.00;61375.16;5071060;28;20081;-32
2022/06/02 09:22:12;;;;;;;4.07;1.35;;;;;;;-148.56;100.00;61375.16;5075436;28;20779;-33
2022/06/02 09:25:06;;;;;;;3.95;1.23;;;;;;;-148.56;100.00;61375.16;5075130;28;20208;-29
2022/06/02 09:28:16;;;;;;;2.50;1.15;;;;;;;-148.56;100.00;61375.16;5076304;28;20038;-29
2022/06/02 09:30:51;;;;;;;2.97;1.10;;;;;;;-148.56;100.00;61375.16;5074320;28;20036;-32
2022/06/02 09:33:44;;;;;;;4.00;1.20;;;;;;;-148.56;100.00;61375.16;5081424;28;20038;-29
2022/06/02 09:36:28;;;;;;;4.43;1.10;;;;;;;-148.56;100.00;61375.16;5081018;28;20058;-30
2022/06/02 09:39:05;;;;;;;3.00;1.30;;;;;;;-148.56;100.00;61375.16;5077407;28;20035;-31
2022/06/02 09:41:33;;;;;;;5.80;1.30;;;;;;;-148.56;100.00;61375.16;5064933;28;20042;-29
2022/06/02 09:44:17;;;;;;;2.50;1.17;;;;;;;-148.56;100.00;61375.16;5079540;28;20031;-37
2022/06/02 09:47:03;;;;;;;3.35;1.20;;;;;;;-148.56;100.00;61375.16;5082259;28;20084;-31
2022/06/02 09:49:45;;;;;;;1.55;1.00;;;;;;;-148.56;100.00;61375.16;5076158;28;20020;-30
2022/06/02 09:52:16;;;;;;;;;;;;;;;-148.56;100.00;61375.16;5070924;28;21719;-31
2022/06/02 09:54:45;;;;;;;3.00;1.00;;;;;;;-148.56;100.00;61375.16;5066315;28;19954;-29
2022/06/02 09:57:56;;;;;;;2.53;0.90;;;;;;;-148.56;100.00;61375.16;5067500;28;21001;-31
2022/06/02 10:00:40;;;;;;;3.13;1.15;;;;;;;-148.56;100.00;61375.16;5067534;28;20575;-28
2022/06/02 10:03:30;;;;;;;2.00;1.02;;;;;;;-148.56;100.00;61375.16;5066431;28;20039;-31
2022/06/02 10:06:30;;;;;;;3.08;1.15;;;;;;;-148.56;100.00;61375.16;5068417;28;22519;-32
2022/06/02 10:09:05;;;;;;;1.98;0.98;;;;;;;-148.56;100.00;61375.16;5042856;28;20043;-34
2022/06/02 10:12:54;;;;;;;1.58;0.90;;;;;;;-148.56;100.00;61375.16;5049804;28;20041;-30
2022/06/02 10:15:06;;;;;;;1.70;0.90;;;;;;;-148.56;100.00;61375.16;5046662;28;20089;-32
2022/06/02 10:18:08;;;;;;;2.83;1.10;;;;;;;-148.56;100.00;61375.16;5064895;28;20032;-29
2022/06/02 10:20:52;;;;;;;;;;;;;;;-148.56;100.00;61375.16;5066481;28;20077;-31
2022/06/02 10:23:18;;;;;;;2.85;1.02;;;;;;;-148.56;100.00;61375.16;5073200;28;19912;-29
2022/06/02 10:26:31;;;;;;;3.75;1.10;;;;;;;-148.56;100.00;61375.16;5072685;28;20040;-32
2022/06/02 10:29:15;;;;;;;4.63;1.23;;;;;;;-148.56;100.00;61375.16;5033588;28;20090;-34
2022/06/02 10:31:40;;;;;;;5.65;1.55;;;;;;;-148.56;100.00;61375.16;5073192;28;20398;-29
2022/06/02 10:34:31;;;;;;;8.10;1.52;;;;;;;-148.56;100.00;61375.16;5066769;28;20039;-35
2022/06/02 10:36:56;;;;;;;6.25;1.40;;;;;;;-148.56;100.00;61375.16;5057288;28;20506;-30
2022/06/02 10:39:54;;;;;;;3.83;1.48;;;;;;;-148.56;100.00;61375.16;5087362;28;20118;-30
2022/06/02 10:42:33;;;;;;;3.28;0.95;;;;;;;-148.56;100.00;61375.16;5072203;28;20036;-29
2022/06/02 10:45:15;;;;;;;5.57;1.42;;;;;;;-148.56;100.00;61375.16;5093938;28;20027;-30
2022/06/02 10:47:59;;;;;;;4.53;0.90;;;;;;;-148.56;100.00;61375.16;5092362;28;20062;-30
2022/06/02 10:50:25;;;;;;;7.97;1.23;;;;;;;-148.56;100.00;61375.16;5095114;28;20031;-35
2022/06/02 10:53:31;;;;;;;4.75;1.30;;;;;;;-148.56;100.00;61375.16;5093878;28;20049;-33
2022/06/02 10:56:21;;;;;;;5.13;1.10;;;;;;;-148.56;100.00;61375.16;5055375;28;20066;-32
2022/06/02 10:59:24;;;;;;;3.03;0.90;;;;;;;-148.56;100.00;61375.16;5063508;28;20029;-34
2022/06/02 11:02:08;;;;;;;3.50;1.35;;;;;;;-148.56;100.00;61375.16;5085375;28;20035;-30
2022/06/02 11:05:09;;;;;;;1.38;0.80;;;;;;;-148.56;100.00;61375.16;5085203;28;20035;-33
2022/06/02 11:07:40;;;;;;;2.20;1.10;;;;;;;-148.56;100.00;61375.16;5001883;28;20070;-28
2022/06/02 11:10:33;;;;;;;6.40;1.10;;;;;;;-148.56;100.00;61375.16;5085778;28;20047;-34
2022/06/02 11:13:19;;;;;;;1.92;1.13;;;;;;;-148.56;100.00;61375.16;5073117;28;20028;-32
2022/06/02 11:16:31;;;;;;;6.22;1.50;;;;;;;-148.56;100.00;61375.16;5087050;28;20533;-31
2022/06/02 11:19:21;;;;;;;1.75;1.10;;;;;;;-148.56;100.00;61375.16;5032562;28;20074;-32
2022/06/02 11:21:49;;;;;;;3.47;1.30;;;;;;;-148.56;100.00;61375.16;5082666;28;20273;-36
2022/06/02 11:24:33;;;;;;;4.40;1.17;;;;;;;-148.56;100.00;61375.16;5081384;28;20061;-30
2022/06/02 11:27:14;;;;;;;4.25;1.20;;;;;;;-148.56;100.00;61375.16;5083475;28;20043;-31
2022/06/02 11:29:49;;;;;;;2.85;1.27;;;;;;;-148.56;100.00;61375.16;5063162;28;20623;-34
2022/06/02 11:32:33;;;;;;;3.58;1.33;;;;;;;-148.56;100.00;61375.16;5086880;28;20043;-31
2022/06/02 11:35:25;;;;;;;3.75;1.08;;;;;;;-148.56;100.00;61375.16;5085619;28;20036;-30
2022/06/02 11:37:59;;;;;;;10.40;1.27;;;;;;;-148.56;100.00;61375.16;5043056;28;20036;-30
2022/06/02 11:40:46;;;;;;;2.60;1.50;;;;;;;-148.56;100.00;61375.16;5085286;28;20039;-30
2022/06/02 11:43:24;;;;;;;3.47;1.23;;;;;;;-148.56;100.00;61375.16;5085566;28;20023;-29
2022/06/02 11:46:11;;;;;;;3.08;1.10;;;;;;;-148.56;100.00;61375.16;5088756;28;20367;-32
2022/06/02 11:48:58;;;;;;;3.03;1.30;;;;;;;-148.56;100.00;61375.16;5096976;28;20027;-31
2022/06/02 11:51:42;;;;;;;1.88;0.93;;;;;;;-148.56;100.00;61375.16;5068715;28;20031;-29
2022/06/02 11:54:14;;;;;;;6.82;1.55;;;;;;;-148.56;100.00;61375.16;5069871;28;20108;-28
2022/06/02 11:57:00;;;;;;;7.60;1.38;;;;;;;-148.56;100.00;61375.16;5096109;28;20059;-31
2022/06/02 11:59:26;;;;;;;2.88;1.10;;;;;;;-148.56;100.00;61375.16;5091846;28;20078;-33
2022/06/02 12:02:17;;;;;;;3.75;1.10;;;;;;;-148.56;100.00;61375.16;5088140;28;20482;-31
2022/06/02 12:05:21;;;;;;;11.75;1.20;;;;;;;-148.56;100.00;61375.16;5046858;28;20997;-31
2022/06/02 12:07:59;;;;;;;5.20;1.33;;;;;;;-148.56;100.00;61375.16;5078396;28;20028;-30
2022/06/02 12:10:34;;;;;;;3.97;1.20;;;;;;;-148.56;100.00;61375.16;5087261;28;20032;-31
2022/06/02 12:13:37;;;;;;;3.05;1.80;;;;;;;-148.56;100.00;61375.16;5073312;28;20504;-32
2022/06/02 12:16:30;;;;;;;3.72;1.55;;;;;;;-148.56;100.00;61375.16;5086824;28;20049;-30
2022/06/02 12:19:11;;;;;;;3.63;1.30;;;;;;;-148.56;100.00;61375.16;5049531;28;20026;-31
2022/06/02 12:22:06;;;;;;;4.07;1.23;;;;;;;-148.56;100.00;61375.16;5086884;28;20489;-30
2022/06/02 12:24:50;;;;;;;2.38;1.27;;;;;;;-148.56;100.00;61375.16;5087095;28;20050;-31
2022/06/02 12:27:30;;;;;;;3.20;1.30;;;;;;;-148.56;100.00;61375.16;5084706;28;20071;-31
2022/06/02 12:30:02;;;;;;;3.80;1.05;;;;;;;-148.56;100.00;61375.16;5080556;28;20040;-30
2022/06/02 12:32:45;;;;;;;3.60;1.20;;;;;;;-148.56;100.00;61375.16;5087003;28;21128;-30